Estación meteorológica de Calldetenes (Osona, Plana de Vic)

Consulta los datos en tiempo real de la estación meteorológica de Calldetenes





Hora UTC 02:05
Temperatura 17.3 ºC
Suelo 15 cm 17.1 ºC
Humedad 85.7 %
Presión 1024.0 hPa
Pluja 0.0 mm
Velocidad viento 1.9 km/h
Dirección viento SSE
Radiación solar 0.1 W/m²

Webcam

Datos diarios 2026-09-03



Hora UTC (invierno +1h; verano +2h)
Temperatura (ºC) Humedad (%) Presión (hPa) Velocidad viento (km/h) Precipitación (mm) Radiación solar (W/m²)
Hora UTC Aire Suelo 15 cm Humedad Presión Vel. Dir. Vel. Max Dir. Intent. máx 5 min. Rad. Sol.
00:05 17.4 17.4 85.2 1024.0 3.5 SE 3.5 SE 0.0 0.1
00:10 17.2 17.3 85.5 1024.0 0.8 ESE 3.9 ESE 0.0 0.1
00:15 17.3 17.2 86.0 1024.1 4.4 ESE 6.7 ESE 0.0 0.1
00:20 17.2 17.2 85.8 1024.1 3.3 SE 6.0 ESE 0.0 0.1
00:25 17.2 17.1 86.0 1024.1 0.7 SSE 3.2 SSE 0.0 0.1
00:30 17.1 17.1 86.8 1024.1 0.1 SSE 1.4 SSE 0.0 0.1
00:35 17.1 17.1 87.2 1024.1 1.5 ESE 3.2 E 0.0 0.1
00:40 17.2 17.1 87.4 1024.1 5.3 ESE 7.4 ESE 0.0 0.1
00:45 17.2 17.2 86.8 1024.1 5.7 E 7.1 ESE 0.0 0.1
00:50 17.2 17.2 87.1 1024.1 4.5 E 6.0 E 0.0 0.1
00:55 17.3 17.3 86.6 1024.1 3.4 E 4.2 ENE 0.0 0.1
01:00 17.2 17.3 86.7 1024.1 1.4 ESE 3.5 E 0.0 0.1
01:05 17.3 17.3 87.4 1024.0 3.3 SE 4.9 SE 0.0 0.1
01:10 17.7 17.4 86.0 1024.0 4.1 SE 6.0 ESE 0.0 0.1
01:15 17.4 17.3 85.1 1024.0 3.2 SE 6.0 ESE 0.0 0.1
01:20 17.2 17.1 85.7 1024.0 3.8 SE 5.3 ESE 0.0 0.1
01:25 16.9 17.0 86.2 1024.0 2.8 SSE 5.3 ESE 0.0 0.1
01:30 17.1 16.8 87.8 1024.0 2.0 S 4.2 SSW 0.0 0.1
01:35 17.1 16.8 87.9 1024.0 3.5 SW 5.6 SW 0.0 0.1
01:40 17.4 16.9 87.3 1024.0 3.0 SSW 4.9 SSW 0.0 0.1
01:45 17.8 17.1 85.4 1024.0 3.5 S 4.6 SSW 0.0 0.1
01:50 17.9 17.4 82.8 1024.0 1.1 S 3.2 SSE 0.0 0.1
01:55 17.5 17.4 84.2 1024.0 1.1 SSE 2.5 SSE 0.0 0.1
02:00 17.4 17.3 85.2 1024.0 2.0 SSE 3.5 S 0.0 0.1
02:05 17.3 17.1 85.7 1024.0 1.9 SSE 3.2 S 0.0 0.1
Máxima 17.9 17.4 87.9 1024.1 5.7 E 7.4 ESE 0.0 0.1
Mínima 16.9 16.8 82.8 1024.0
Total 0.0